VNC weather

Venice Municipal Airport
Venice, Florida, United States

Public forecast

Using degrees Fahrenheit for public forecast. Weather courtesy of forecast.io.

Current aviation weather report (METAR) for Venice Municipal Airport

Retrieved 2019/11/20 08:35 UTC (0 seconds ago):

KVNC 200835Z AUTO 00000KT A3007 RMK AO2 PWINO

Closest aviation forecast (TAF) to Venice Municipal Airport

Closest forecast is Sarasota Bradenton International Airport, 20.4 nm (37.7 km) NNW. Retrieved 2019/11/20 06:39 UTC (1 hour ago):

TAF KSRQ 200537Z 2006/2106 VRB03KT P6SM SKC FM201500 36007KT P6SM SKC FM201800 33008KT P6SM SKC FM210100 VRB03KT P6SM SKC